PWSweather.com
Personal Weather Stations
Station Observations
GRD01
Warsaw, LesznoPL 05-084

WarsawLesznoPL 05-084

Lat: 52.257404, Lon: 20.564847

Elevation: 298

Station Type: WH3080

http://pogoda.kampinos.waw.pl

High Low Average
Temperature 67.3°F19.6°C 46.4°F8.0°C 56.2°F13.4°C
Dew Point 50.4°F10.2°C 40.9°F4.9°C 45.1°F7.3°C
Winds 12.1 mph 19.5 kmh Calm Calm 4.0 mph W6.4 kmh W
Wind Gusts 19.7 mph31.7 kmh -- 8.0 mph12.9 kmh
Humidity 91% 41% 69%
Pressure 30.91 in1046.7 mb 30.81 in1043.3 mb -
Precipitation 0.01 in0.3 mm - -
Hour Temp Dew Point Humidity Winds Wind Gusts Pressure Precip Precip Rate Daily Precip Total
12:00 AM 53.2°F11.8°C 47.6°F8.7°C 81% 4.5 mph WNW7.2 kmh WNW 6.9 mph11.1 kmh 30.82 in1043.7 mb 0.00 in0.0 mm 0.00 in0.0 mm 0.00 in0.0 mm
12:10 AM 53.2°F11.8°C 47.6°F8.7°C 81% 3.1 mph NW5.0 kmh NW 3.8 mph6.1 kmh 30.38 in1028.8 mb 0.00 in0.0 mm 0.00 in0.0 mm 0.00 in0.0 mm
12:15 AM 52.9°F11.6°C 47.5°F8.6°C 82% 2.2 mph W3.5 kmh W 6.0 mph9.7 kmh 30.82 in1043.7 mb 0.00 in0.0 mm 0.00 in0.0 mm 0.00 in0.0 mm
12:30 AM 52.7°F11.5°C 47.4°F8.6°C 82% 2.2 mph WNW3.5 kmh WNW 5.4 mph8.7 kmh 30.82 in1043.7 mb 0.00 in0.0 mm 0.00 in0.0 mm 0.00 in0.0 mm
12:40 AM 52.7°F11.5°C 47.4°F8.6°C 82% 1.6 mph W2.6 kmh W 2.2 mph3.5 kmh 30.38 in1028.8 mb 0.00 in0.0 mm 0.00 in0.0 mm 0.00 in0.0 mm
12:45 AM 52.3°F11.3°C 47.3°F8.5°C 83% 3.8 mph NW6.1 kmh NW 6.0 mph9.7 kmh 30.83 in1044.0 mb 0.00 in0.0 mm 0.00 in0.0 mm 0.00 in0.0 mm
01:00 AM 52.2°F11.2°C 47.2°F8.4°C 83% 1.6 mph NW2.6 kmh NW 5.4 mph8.7 kmh 30.83 in1044.0 mb 0.00 in0.0 mm 0.00 in0.0 mm 0.00 in0.0 mm
01:10 AM 52.2°F11.2°C 47.2°F8.4°C 83% 1.6 mph NW2.6 kmh NW 2.2 mph3.5 kmh 30.40 in1029.5 mb 0.00 in0.0 mm 0.00 in0.0 mm 0.00 in0.0 mm
01:15 AM 51.8°F11.0°C 47.1°F8.4°C 84% 3.8 mph WNW6.1 kmh WNW 6.9 mph11.1 kmh 30.84 in1044.4 mb 0.00 in0.0 mm 0.00 in0.0 mm 0.00 in0.0 mm
01:30 AM 51.4°F10.8°C 46.8°F8.2°C 84% 3.1 mph WNW5.0 kmh WNW 5.4 mph8.7 kmh 30.84 in1044.4 mb 0.00 in0.0 mm 0.00 in0.0 mm 0.00 in0.0 mm
01:40 AM 51.4°F10.8°C 46.8°F8.2°C 84% 2.2 mph NW3.5 kmh NW 3.8 mph6.1 kmh 30.39 in1029.1 mb 0.00 in0.0 mm 0.00 in0.0 mm 0.00 in0.0 mm
01:45 AM 51.3°F10.7°C 46.9°F8.3°C 85% 2.2 mph WNW3.5 kmh WNW 6.9 mph11.1 kmh 30.84 in1044.4 mb 0.00 in0.0 mm 0.00 in0.0 mm 0.00 in0.0 mm
02:00 AM 51.1°F10.6°C 46.7°F8.2°C 85% 3.8 mph NW6.1 kmh NW 6.0 mph9.7 kmh 30.84 in1044.4 mb 0.00 in0.0 mm 0.00 in0.0 mm 0.00 in0.0 mm
02:10 AM 51.1°F10.6°C 46.7°F8.2°C 85% 3.8 mph NW6.1 kmh NW 4.5 mph7.2 kmh 30.40 in1029.5 mb 0.00 in0.0 mm 0.00 in0.0 mm 0.00 in0.0 mm
02:15 AM 50.9°F10.5°C 46.9°F8.3°C 86% 4.5 mph NW7.2 kmh NW 6.0 mph9.7 kmh 30.84 in1044.4 mb 0.00 in0.0 mm 0.00 in0.0 mm 0.00 in0.0 mm
02:30 AM 50.7°F10.4°C 46.7°F8.2°C 86% 4.5 mph NW7.2 kmh NW 6.0 mph9.7 kmh 30.84 in1044.4 mb 0.00 in0.0 mm 0.00 in0.0 mm 0.00 in0.0 mm
02:40 AM 50.7°F10.4°C 46.7°F8.2°C 86% 2.2 mph W3.5 kmh W 3.1 mph5.0 kmh 30.41 in1029.8 mb 0.00 in0.0 mm 0.00 in0.0 mm 0.00 in0.0 mm
02:45 AM 50.5°F10.3°C 46.8°F8.2°C 87% 3.8 mph W6.1 kmh W 6.9 mph11.1 kmh 30.84 in1044.4 mb 0.00 in0.0 mm 0.00 in0.0 mm 0.00 in0.0 mm
03:00 AM 50.4°F10.2°C 46.6°F8.1°C 87% 2.2 mph W3.5 kmh W 7.6 mph12.2 kmh 30.84 in1044.4 mb 0.00 in0.0 mm 0.00 in0.0 mm 0.00 in0.0 mm
03:10 AM 50.4°F10.2°C 46.6°F8.1°C 87% 3.1 mph W5.0 kmh W 4.5 mph7.2 kmh 30.40 in1029.5 mb 0.00 in0.0 mm 0.00 in0.0 mm 0.00 in0.0 mm
03:15 AM 50.0°F10.0°C 46.3°F7.9°C 87% 3.1 mph WNW5.0 kmh WNW 6.9 mph11.1 kmh 30.85 in1044.7 mb 0.00 in0.0 mm 0.00 in0.0 mm 0.00 in0.0 mm
03:30 AM 49.8°F9.9°C 46.4°F8.0°C 88% 1.6 mph WNW2.6 kmh WNW 5.4 mph8.7 kmh 30.85 in1044.7 mb 0.00 in0.0 mm 0.00 in0.0 mm 0.00 in0.0 mm
03:40 AM 49.8°F9.9°C 46.4°F8.0°C 88% 2.2 mph NW3.5 kmh NW 3.1 mph5.0 kmh 30.41 in1029.8 mb 0.00 in0.0 mm 0.00 in0.0 mm 0.00 in0.0 mm
03:45 AM 49.6°F9.8°C 46.2°F7.9°C 88% 3.1 mph NW5.0 kmh NW 6.0 mph9.7 kmh 30.85 in1044.7 mb 0.00 in0.0 mm 0.00 in0.0 mm 0.00 in0.0 mm
04:00 AM 49.5°F9.7°C 46.1°F7.8°C 88% 4.5 mph NW7.2 kmh NW 6.0 mph9.7 kmh 30.85 in1044.7 mb 0.00 in0.0 mm 0.00 in0.0 mm 0.00 in0.0 mm
04:10 AM 49.5°F9.7°C 46.1°F7.8°C 88% 3.1 mph W5.0 kmh W 3.8 mph6.1 kmh 30.41 in1029.8 mb 0.00 in0.0 mm 0.00 in0.0 mm 0.00 in0.0 mm
04:15 AM 49.3°F9.6°C 46.2°F7.9°C 89% 3.1 mph WSW5.0 kmh WSW 6.9 mph11.1 kmh 30.85 in1044.7 mb 0.00 in0.0 mm 0.00 in0.0 mm 0.00 in0.0 mm
04:30 AM 49.1°F9.5°C 46.0°F7.8°C 89% 3.1 mph NW5.0 kmh NW 5.4 mph8.7 kmh 30.85 in1044.7 mb 0.00 in0.0 mm 0.00 in0.0 mm 0.00 in0.0 mm
04:40 AM 49.1°F9.5°C 46.0°F7.8°C 89% 2.2 mph W3.5 kmh W 3.1 mph5.0 kmh 30.41 in1029.8 mb 0.00 in0.0 mm 0.00 in0.0 mm 0.00 in0.0 mm
04:45 AM 49.1°F9.5°C 46.0°F7.8°C 89% 3.1 mph WNW5.0 kmh WNW 5.4 mph8.7 kmh 30.86 in1045.0 mb 0.00 in0.0 mm 0.00 in0.0 mm 0.00 in0.0 mm
05:00 AM 49.1°F9.5°C 46.3°F7.9°C 90% 2.2 mph W3.5 kmh W 6.0 mph9.7 kmh 30.85 in1044.7 mb 0.00 in0.0 mm 0.00 in0.0 mm 0.00 in0.0 mm
05:10 AM 49.1°F9.5°C 46.3°F7.9°C 90% 2.2 mph W3.5 kmh W 3.8 mph6.1 kmh 30.41 in1029.8 mb 0.00 in0.0 mm 0.00 in0.0 mm 0.00 in0.0 mm
05:15 AM 48.9°F9.4°C 46.1°F7.8°C 90% 3.1 mph WNW5.0 kmh WNW 5.4 mph8.7 kmh 30.85 in1044.7 mb 0.00 in0.0 mm 0.00 in0.0 mm 0.00 in0.0 mm
05:30 AM 48.9°F9.4°C 46.1°F7.8°C 90% 3.8 mph NW6.1 kmh NW 6.0 mph9.7 kmh 30.86 in1045.0 mb 0.00 in0.0 mm 0.00 in0.0 mm 0.00 in0.0 mm
05:40 AM 48.9°F9.4°C 46.1°F7.8°C 90% 6.0 mph NW9.7 kmh NW 6.9 mph11.1 kmh 30.42 in1030.1 mb 0.00 in0.0 mm 0.00 in0.0 mm 0.00 in0.0 mm
05:45 AM 49.1°F9.5°C 46.3°F7.9°C 90% 3.1 mph WNW5.0 kmh WNW 6.0 mph9.7 kmh 30.87 in1045.4 mb 0.00 in0.0 mm 0.00 in0.0 mm 0.00 in0.0 mm
06:00 AM 49.5°F9.7°C 46.6°F8.1°C 90% 4.5 mph W7.2 kmh W 9.2 mph14.8 kmh 30.87 in1045.4 mb 0.00 in0.0 mm 0.00 in0.0 mm 0.00 in0.0 mm
06:10 AM 49.5°F9.7°C 46.6°F8.1°C 90% 3.8 mph NW6.1 kmh NW 5.4 mph8.7 kmh 30.43 in1030.5 mb 0.00 in0.0 mm 0.00 in0.0 mm 0.00 in0.0 mm
06:15 AM 50.0°F10.0°C 47.5°F8.6°C 91% 4.5 mph WNW7.2 kmh WNW 7.6 mph12.2 kmh 30.87 in1045.4 mb 0.00 in0.0 mm 0.00 in0.0 mm 0.00 in0.0 mm
06:30 AM 50.4°F10.2°C 47.8°F8.8°C 91% 6.0 mph WNW9.7 kmh WNW 8.3 mph13.4 kmh 30.88 in1045.7 mb 0.00 in0.0 mm 0.00 in0.0 mm 0.00 in0.0 mm
06:40 AM 50.4°F10.2°C 47.8°F8.8°C 91% 3.8 mph N6.1 kmh N 4.5 mph7.2 kmh 30.44 in1030.8 mb 0.00 in0.0 mm 0.00 in0.0 mm 0.00 in0.0 mm
06:45 AM 50.9°F10.5°C 48.4°F9.1°C 91% 3.8 mph NW6.1 kmh NW 9.2 mph14.8 kmh 30.88 in1045.7 mb 0.00 in0.0 mm 0.00 in0.0 mm 0.00 in0.0 mm
07:00 AM 51.4°F10.8°C 48.6°F9.2°C 90% 3.1 mph SSW5.0 kmh SSW 6.0 mph9.7 kmh 30.89 in1046.1 mb 0.00 in0.0 mm 0.00 in0.0 mm 0.00 in0.0 mm
07:10 AM 51.4°F10.8°C 48.6°F9.2°C 90% 3.1 mph S5.0 kmh S 3.8 mph6.1 kmh 30.44 in1030.8 mb 0.00 in0.0 mm 0.00 in0.0 mm 0.00 in0.0 mm
07:15 AM 52.5°F11.4°C 49.7°F9.8°C 90% 2.2 mph WNW3.5 kmh WNW 9.2 mph14.8 kmh 30.89 in1046.1 mb 0.00 in0.0 mm 0.00 in0.0 mm 0.00 in0.0 mm
07:30 AM 53.2°F11.8°C 50.1°F10.1°C 89% 2.2 mph WSW3.5 kmh WSW 10.7 mph17.2 kmh 30.89 in1046.1 mb 0.01 in0.3 mm 0.04 in1.0 mm 0.01 in0.3 mm
07:40 AM 53.4°F11.9°C 50.3°F10.2°C 89% 4.5 mph W7.2 kmh W 5.4 mph8.7 kmh 30.45 in1031.2 mb 0.01 in0.3 mm 0.00 in0.0 mm 0.01 in0.3 mm
07:45 AM 54.1°F12.3°C 50.4°F10.2°C 87% 3.1 mph WNW5.0 kmh WNW 10.7 mph17.2 kmh 30.89 in1046.1 mb 0.01 in0.3 mm 0.00 in0.0 mm 0.01 in0.3 mm
08:00 AM 55.0°F12.8°C 49.6°F9.8°C 82% 7.6 mph NW12.2 kmh NW 9.8 mph15.8 kmh 30.90 in1046.4 mb 0.01 in0.3 mm 0.00 in0.0 mm 0.01 in0.3 mm
08:10 AM 55.0°F12.8°C 49.6°F9.8°C 82% 10.7 mph NW17.2 kmh NW 12.1 mph19.5 kmh 30.45 in1031.2 mb 0.01 in0.3 mm 0.00 in0.0 mm 0.01 in0.3 mm
08:15 AM 56.1°F13.4°C 50.0°F10.0°C 80% 3.8 mph NW6.1 kmh NW 11.4 mph18.3 kmh 30.90 in1046.4 mb 0.01 in0.3 mm 0.00 in0.0 mm 0.01 in0.3 mm
08:30 AM 57.2°F14.0°C 50.4°F10.2°C 78% 6.0 mph WNW9.7 kmh WNW 10.7 mph17.2 kmh 30.89 in1046.1 mb 0.00 in0.0 mm 0.00 in0.0 mm 0.01 in0.3 mm
08:40 AM 57.2°F14.0°C 50.4°F10.2°C 78% 6.9 mph N11.1 kmh N 9.2 mph14.8 kmh 30.46 in1031.5 mb 0.00 in0.0 mm 0.00 in0.0 mm 0.01 in0.3 mm
08:45 AM 58.3°F14.6°C 50.4°F10.2°C 75% 6.0 mph NW9.7 kmh NW 9.2 mph14.8 kmh 30.90 in1046.4 mb 0.00 in0.0 mm 0.00 in0.0 mm 0.01 in0.3 mm
09:00 AM 59.4°F15.2°C 50.3°F10.2°C 72% 11.4 mph NW18.3 kmh NW 14.5 mph23.3 kmh 30.91 in1046.7 mb 0.00 in0.0 mm 0.00 in0.0 mm 0.01 in0.3 mm
09:10 AM 59.5°F15.3°C 50.5°F10.3°C 72% 7.6 mph NW12.2 kmh NW 12.1 mph19.5 kmh 30.46 in1031.5 mb 0.00 in0.0 mm 0.00 in0.0 mm 0.01 in0.3 mm
09:15 AM 59.9°F15.5°C 49.7°F9.8°C 69% 6.0 mph NW9.7 kmh NW 14.5 mph23.3 kmh 30.89 in1046.1 mb 0.00 in0.0 mm 0.00 in0.0 mm 0.01 in0.3 mm
09:30 AM 61.0°F16.1°C 49.9°F9.9°C 67% 8.3 mph NW13.4 kmh NW 11.4 mph18.3 kmh 30.90 in1046.4 mb 0.00 in0.0 mm 0.00 in0.0 mm 0.01 in0.3 mm
09:40 AM 61.0°F16.1°C 49.9°F9.9°C 67% 3.8 mph W6.1 kmh W 5.4 mph8.7 kmh 30.45 in1031.2 mb 0.00 in0.0 mm 0.00 in0.0 mm 0.01 in0.3 mm
09:45 AM 61.9°F16.6°C 49.6°F9.8°C 64% 3.8 mph NW6.1 kmh NW 10.7 mph17.2 kmh 30.89 in1046.1 mb 0.00 in0.0 mm 0.00 in0.0 mm 0.01 in0.3 mm
10:00 AM 61.5°F16.4°C 47.9°F8.8°C 61% 9.8 mph NNW15.8 kmh NNW 13.6 mph21.9 kmh 30.90 in1046.4 mb 0.00 in0.0 mm 0.00 in0.0 mm 0.01 in0.3 mm
10:10 AM 61.5°F16.4°C 47.9°F8.8°C 61% 12.1 mph N19.5 kmh N 14.5 mph23.3 kmh 30.45 in1031.2 mb 0.00 in0.0 mm 0.00 in0.0 mm 0.01 in0.3 mm
10:15 AM 61.5°F16.4°C 48.4°F9.1°C 62% 9.2 mph W14.8 kmh W 13.0 mph20.9 kmh 30.89 in1046.1 mb 0.00 in0.0 mm 0.00 in0.0 mm 0.01 in0.3 mm
10:30 AM 62.4°F16.9°C 48.8°F9.3°C 61% 6.9 mph WNW11.1 kmh WNW 9.2 mph14.8 kmh 30.90 in1046.4 mb 0.00 in0.0 mm 0.00 in0.0 mm 0.01 in0.3 mm
10:40 AM 62.6°F17.0°C 49.0°F9.4°C 61% 8.3 mph NW13.4 kmh NW 9.8 mph15.8 kmh 30.45 in1031.2 mb 0.00 in0.0 mm 0.00 in0.0 mm 0.01 in0.3 mm
10:45 AM 62.2°F16.8°C 47.3°F8.5°C 58% 9.2 mph NW14.8 kmh NW 13.0 mph20.9 kmh 30.90 in1046.4 mb 0.00 in0.0 mm 0.00 in0.0 mm 0.01 in0.3 mm
11:00 AM 63.3°F17.4°C 47.3°F8.5°C 56% 7.6 mph WNW12.2 kmh WNW 13.0 mph20.9 kmh 30.89 in1046.1 mb 0.00 in0.0 mm 0.00 in0.0 mm 0.01 in0.3 mm
11:10 AM 63.3°F17.4°C 46.9°F8.3°C 55% 4.5 mph W7.2 kmh W 5.4 mph8.7 kmh 30.45 in1031.2 mb 0.00 in0.0 mm 0.00 in0.0 mm 0.01 in0.3 mm
11:15 AM 63.0°F17.2°C 46.5°F8.1°C 55% 12.1 mph NW19.5 kmh NW 15.2 mph24.5 kmh 30.89 in1046.1 mb 0.00 in0.0 mm 0.00 in0.0 mm 0.01 in0.3 mm
11:30 AM 63.9°F17.7°C 45.4°F7.4°C 51% 7.6 mph W12.2 kmh W 12.1 mph19.5 kmh 30.90 in1046.4 mb 0.00 in0.0 mm 0.00 in0.0 mm 0.01 in0.3 mm
11:40 AM 63.9°F17.7°C 45.4°F7.4°C 51% 3.1 mph W5.0 kmh W 4.5 mph7.2 kmh 30.45 in1031.2 mb 0.00 in0.0 mm 0.00 in0.0 mm 0.01 in0.3 mm
11:45 AM 64.6°F18.1°C 46.0°F7.8°C 51% 6.0 mph W9.7 kmh W 13.6 mph21.9 kmh 30.90 in1046.4 mb 0.00 in0.0 mm 0.00 in0.0 mm 0.01 in0.3 mm
12:00 PM 63.5°F17.5°C 45.0°F7.2°C 51% 6.9 mph WNW11.1 kmh WNW 14.5 mph23.3 kmh 30.88 in1045.7 mb 0.00 in0.0 mm 0.00 in0.0 mm 0.01 in0.3 mm
12:10 PM 63.5°F17.5°C 45.0°F7.2°C 51% 9.2 mph NW14.8 kmh NW 13.0 mph20.9 kmh 30.45 in1031.2 mb 0.00 in0.0 mm 0.00 in0.0 mm 0.01 in0.3 mm
12:15 PM 63.7°F17.6°C 44.7°F7.1°C 50% 9.8 mph WNW15.8 kmh WNW 13.0 mph20.9 kmh 30.89 in1046.1 mb 0.00 in0.0 mm 0.00 in0.0 mm 0.01 in0.3 mm
12:30 PM 64.6°F18.1°C 43.3°F6.3°C 46% 9.2 mph W14.8 kmh W 13.6 mph21.9 kmh 30.87 in1045.4 mb 0.00 in0.0 mm 0.00 in0.0 mm 0.01 in0.3 mm
12:40 PM 64.6°F18.1°C 43.3°F6.3°C 46% 10.7 mph NW17.2 kmh NW 12.1 mph19.5 kmh 30.43 in1030.5 mb 0.00 in0.0 mm 0.00 in0.0 mm 0.01 in0.3 mm
12:45 PM 65.1°F18.4°C 42.7°F5.9°C 44% 7.6 mph WSW12.2 kmh WSW 19.7 mph31.7 kmh 30.87 in1045.4 mb 0.00 in0.0 mm 0.00 in0.0 mm 0.01 in0.3 mm
01:00 PM 65.1°F18.4°C 42.1°F5.6°C 43% 8.3 mph S13.4 kmh S 18.3 mph29.5 kmh 30.87 in1045.4 mb 0.00 in0.0 mm 0.00 in0.0 mm 0.01 in0.3 mm
01:10 PM 65.1°F18.4°C 42.1°F5.6°C 43% 8.3 mph SSE13.4 kmh SSE 12.1 mph19.5 kmh 30.43 in1030.5 mb 0.00 in0.0 mm 0.00 in0.0 mm 0.01 in0.3 mm
01:15 PM 64.9°F18.3°C 41.3°F5.2°C 42% 4.5 mph W7.2 kmh W 17.4 mph28.0 kmh 30.88 in1045.7 mb 0.00 in0.0 mm 0.00 in0.0 mm 0.01 in0.3 mm
01:30 PM 65.5°F18.6°C 41.8°F5.4°C 42% 6.9 mph W11.1 kmh W 15.2 mph24.5 kmh 30.87 in1045.4 mb 0.00 in0.0 mm 0.00 in0.0 mm 0.01 in0.3 mm
01:40 PM 65.5°F18.6°C 41.8°F5.4°C 42% 12.1 mph SW19.5 kmh SW 16.8 mph27.0 kmh 30.43 in1030.5 mb 0.00 in0.0 mm 0.00 in0.0 mm 0.01 in0.3 mm
01:45 PM 65.5°F18.6°C 41.1°F5.1°C 41% 10.7 mph WSW17.2 kmh WSW 17.4 mph28.0 kmh 30.86 in1045.0 mb 0.00 in0.0 mm 0.00 in0.0 mm 0.01 in0.3 mm
02:00 PM 65.3°F18.5°C 41.6°F5.3°C 42% 4.5 mph NW7.2 kmh NW 13.0 mph20.9 kmh 30.86 in1045.0 mb 0.00 in0.0 mm 0.00 in0.0 mm 0.01 in0.3 mm
02:10 PM 65.3°F18.5°C 42.2°F5.7°C 43% 4.5 mph NW7.2 kmh NW 9.8 mph15.8 kmh 30.42 in1030.1 mb 0.00 in0.0 mm 0.00 in0.0 mm 0.01 in0.3 mm
02:15 PM 66.7°F19.3°C 43.5°F6.4°C 43% 6.9 mph WSW11.1 kmh WSW 15.2 mph24.5 kmh 30.85 in1044.7 mb 0.00 in0.0 mm 0.00 in0.0 mm 0.01 in0.3 mm
02:30 PM 67.3°F19.6°C 42.8°F6.0°C 41% 6.0 mph W9.7 kmh W 16.8 mph27.0 kmh 30.85 in1044.7 mb 0.00 in0.0 mm 0.00 in0.0 mm 0.01 in0.3 mm
02:40 PM 67.1°F19.5°C 43.2°F6.2°C 42% 5.4 mph SW8.7 kmh SW 8.3 mph13.4 kmh 30.40 in1029.5 mb 0.00 in0.0 mm 0.00 in0.0 mm 0.01 in0.3 mm
02:45 PM 66.4°F19.1°C 42.0°F5.6°C 41% 7.6 mph W12.2 kmh W 13.0 mph20.9 kmh 30.84 in1044.4 mb 0.00 in0.0 mm 0.00 in0.0 mm 0.01 in0.3 mm
03:00 PM 65.3°F18.5°C 42.2°F5.7°C 43% 3.8 mph W6.1 kmh W 11.4 mph18.3 kmh 30.84 in1044.4 mb 0.00 in0.0 mm 0.00 in0.0 mm 0.01 in0.3 mm
03:10 PM 65.3°F18.5°C 42.2°F5.7°C 43% 7.6 mph NW12.2 kmh NW 9.2 mph14.8 kmh 30.40 in1029.5 mb 0.00 in0.0 mm 0.00 in0.0 mm 0.01 in0.3 mm
03:15 PM 64.8°F18.2°C 41.1°F5.1°C 42% 6.0 mph WNW9.7 kmh WNW 10.7 mph17.2 kmh 30.84 in1044.4 mb 0.00 in0.0 mm 0.00 in0.0 mm 0.01 in0.3 mm
03:30 PM 64.6°F18.1°C 41.0°F5.0°C 42% 11.4 mph NW18.3 kmh NW 16.8 mph27.0 kmh 30.85 in1044.7 mb 0.00 in0.0 mm 0.00 in0.0 mm 0.01 in0.3 mm
03:40 PM 64.6°F18.1°C 41.0°F5.0°C 42% 9.8 mph NW15.8 kmh NW 13.6 mph21.9 kmh 30.40 in1029.5 mb 0.00 in0.0 mm 0.00 in0.0 mm 0.01 in0.3 mm
03:45 PM 65.3°F18.5°C 42.2°F5.7°C 43% 2.2 mph WSW3.5 kmh WSW 11.4 mph18.3 kmh 30.84 in1044.4 mb 0.00 in0.0 mm 0.00 in0.0 mm 0.01 in0.3 mm
04:00 PM 65.3°F18.5°C 42.8°F6.0°C 44% 5.4 mph WNW8.7 kmh WNW 9.8 mph15.8 kmh 30.84 in1044.4 mb 0.00 in0.0 mm 0.00 in0.0 mm 0.01 in0.3 mm
04:10 PM 65.3°F18.5°C 42.8°F6.0°C 44% 7.6 mph NW12.2 kmh NW 9.8 mph15.8 kmh 30.40 in1029.5 mb 0.00 in0.0 mm 0.00 in0.0 mm 0.01 in0.3 mm
04:15 PM 64.8°F18.2°C 41.7°F5.4°C 43% 6.9 mph WNW11.1 kmh WNW 15.9 mph25.6 kmh 30.84 in1044.4 mb 0.00 in0.0 mm 0.00 in0.0 mm 0.01 in0.3 mm
04:30 PM 64.0°F17.8°C 42.3°F5.7°C 45% 5.4 mph WNW8.7 kmh WNW 11.4 mph18.3 kmh 30.84 in1044.4 mb 0.00 in0.0 mm 0.00 in0.0 mm 0.01 in0.3 mm
04:40 PM 64.0°F17.8°C 42.3°F5.7°C 45% 4.5 mph NW7.2 kmh NW 6.0 mph9.7 kmh 30.39 in1029.1 mb 0.00 in0.0 mm 0.00 in0.0 mm 0.01 in0.3 mm
04:45 PM 63.5°F17.5°C 42.3°F5.7°C 46% 6.0 mph WNW9.7 kmh WNW 8.3 mph13.4 kmh 30.84 in1044.4 mb 0.00 in0.0 mm 0.00 in0.0 mm 0.01 in0.3 mm
05:00 PM 62.8°F17.1°C 43.9°F6.6°C 50% 6.0 mph W9.7 kmh W 9.8 mph15.8 kmh 30.83 in1044.0 mb 0.00 in0.0 mm 0.00 in0.0 mm 0.01 in0.3 mm
05:10 PM 62.8°F17.1°C 43.9°F6.6°C 50% 5.4 mph W8.7 kmh W 6.9 mph11.1 kmh 30.38 in1028.8 mb 0.00 in0.0 mm 0.00 in0.0 mm 0.01 in0.3 mm
05:15 PM 62.1°F16.7°C 43.7°F6.5°C 51% 3.1 mph WSW5.0 kmh WSW 7.6 mph12.2 kmh 30.82 in1043.7 mb 0.00 in0.0 mm 0.00 in0.0 mm 0.01 in0.3 mm
05:30 PM 61.2°F16.2°C 43.9°F6.6°C 53% 0.7 mph WSW1.1 kmh WSW 5.4 mph8.7 kmh 30.82 in1043.7 mb 0.00 in0.0 mm 0.00 in0.0 mm 0.01 in0.3 mm
05:40 PM 61.2°F16.2°C 43.9°F6.6°C 53% 0.7 mph W1.1 kmh W 2.2 mph3.5 kmh 30.38 in1028.8 mb 0.00 in0.0 mm 0.00 in0.0 mm 0.01 in0.3 mm
05:45 PM 60.1°F15.6°C 44.3°F6.8°C 56% 0.7 mph WSW1.1 kmh WSW 3.8 mph6.1 kmh 30.82 in1043.7 mb 0.00 in0.0 mm 0.00 in0.0 mm 0.01 in0.3 mm
06:00 PM 59.2°F15.1°C 44.9°F7.2°C 59% 0.7 mph SW1.1 kmh SW 1.6 mph2.6 kmh 30.83 in1044.0 mb 0.00 in0.0 mm 0.00 in0.0 mm 0.01 in0.3 mm
06:10 PM 59.0°F15.0°C 45.1°F7.3°C 60% Calm Calm 1.6 mph2.6 kmh 30.38 in1028.8 mb 0.00 in0.0 mm 0.00 in0.0 mm 0.01 in0.3 mm
06:15 PM 58.1°F14.5°C 44.3°F6.8°C 60% 2.2 mph WSW3.5 kmh WSW 3.8 mph6.1 kmh 30.84 in1044.4 mb 0.00 in0.0 mm 0.00 in0.0 mm 0.01 in0.3 mm
06:30 PM 57.4°F14.1°C 44.0°F6.7°C 61% Calm Calm 2.2 mph3.5 kmh 30.83 in1044.0 mb 0.00 in0.0 mm 0.00 in0.0 mm 0.01 in0.3 mm
06:40 PM 57.4°F14.1°C 44.0°F6.7°C 61% Calm Calm 0.7 mph1.1 kmh 30.38 in1028.8 mb 0.00 in0.0 mm 0.00 in0.0 mm 0.01 in0.3 mm
06:45 PM 56.5°F13.6°C 43.6°F6.4°C 62% Calm Calm 3.1 mph5.0 kmh 30.84 in1044.4 mb 0.00 in0.0 mm 0.00 in0.0 mm 0.01 in0.3 mm
07:00 PM 56.1°F13.4°C 43.7°F6.5°C 63% 0.7 mph SW1.1 kmh SW 2.2 mph3.5 kmh 30.84 in1044.4 mb 0.00 in0.0 mm 0.00 in0.0 mm 0.01 in0.3 mm
07:10 PM 56.1°F13.4°C 43.7°F6.5°C 63% 0.7 mph SW1.1 kmh SW 1.6 mph2.6 kmh 30.39 in1029.1 mb 0.00 in0.0 mm 0.00 in0.0 mm 0.01 in0.3 mm
07:15 PM 55.2°F12.9°C 43.2°F6.2°C 64% Calm Calm 2.2 mph3.5 kmh 30.83 in1044.0 mb 0.00 in0.0 mm 0.00 in0.0 mm 0.01 in0.3 mm
07:30 PM 54.7°F12.6°C 42.7°F5.9°C 64% 0.7 mph WSW1.1 kmh WSW 3.1 mph5.0 kmh 30.83 in1044.0 mb 0.00 in0.0 mm 0.00 in0.0 mm 0.01 in0.3 mm
07:40 PM 54.7°F12.6°C 42.7°F5.9°C 64% Calm Calm 0.7 mph1.1 kmh 30.39 in1029.1 mb 0.00 in0.0 mm 0.00 in0.0 mm 0.01 in0.3 mm
07:45 PM 54.3°F12.4°C 44.7°F7.1°C 70% 0.7 mph WSW1.1 kmh WSW 2.2 mph3.5 kmh 30.82 in1043.7 mb 0.00 in0.0 mm 0.00 in0.0 mm 0.01 in0.3 mm
08:00 PM 53.8°F12.1°C 44.2°F6.8°C 70% 1.6 mph SW2.6 kmh SW 2.2 mph3.5 kmh 30.83 in1044.0 mb 0.00 in0.0 mm 0.00 in0.0 mm 0.01 in0.3 mm
08:10 PM 53.8°F12.1°C 44.2°F6.8°C 70% 0.7 mph W1.1 kmh W 1.6 mph2.6 kmh 30.39 in1029.1 mb 0.00 in0.0 mm 0.00 in0.0 mm 0.01 in0.3 mm
08:15 PM 53.4°F11.9°C 43.9°F6.6°C 70% 0.7 mph WSW1.1 kmh WSW 2.2 mph3.5 kmh 30.83 in1044.0 mb 0.00 in0.0 mm 0.00 in0.0 mm 0.01 in0.3 mm
08:30 PM 52.7°F11.5°C 43.6°F6.4°C 71% 0.7 mph SW1.1 kmh SW 1.6 mph2.6 kmh 30.83 in1044.0 mb 0.00 in0.0 mm 0.00 in0.0 mm 0.01 in0.3 mm
08:40 PM 52.7°F11.5°C 43.6°F6.4°C 71% 0.7 mph SW1.1 kmh SW 0.7 mph1.1 kmh 30.39 in1029.1 mb 0.00 in0.0 mm 0.00 in0.0 mm 0.01 in0.3 mm
08:45 PM 52.2°F11.2°C 43.0°F6.1°C 71% 0.7 mph SW1.1 kmh SW 2.2 mph3.5 kmh 30.83 in1044.0 mb 0.00 in0.0 mm 0.00 in0.0 mm 0.01 in0.3 mm
09:00 PM 51.6°F10.9°C 42.9°F6.1°C 72% Calm Calm 2.2 mph3.5 kmh 30.83 in1044.0 mb 0.00 in0.0 mm 0.00 in0.0 mm 0.01 in0.3 mm
09:10 PM 51.6°F10.9°C 42.9°F6.1°C 72% Calm Calm 0.7 mph1.1 kmh 30.38 in1028.8 mb 0.00 in0.0 mm 0.00 in0.0 mm 0.01 in0.3 mm
09:15 PM 51.1°F10.6°C 42.7°F5.9°C 73% Calm Calm 1.6 mph2.6 kmh 30.83 in1044.0 mb 0.00 in0.0 mm 0.00 in0.0 mm 0.01 in0.3 mm
09:30 PM 50.4°F10.2°C 42.0°F5.6°C 73% 0.7 mph SW1.1 kmh SW 1.6 mph2.6 kmh 30.83 in1044.0 mb 0.00 in0.0 mm 0.00 in0.0 mm 0.01 in0.3 mm
09:40 PM 50.4°F10.2°C 42.0°F5.6°C 73% 0.7 mph SW1.1 kmh SW 1.6 mph2.6 kmh 30.40 in1029.5 mb 0.00 in0.0 mm 0.00 in0.0 mm 0.01 in0.3 mm
09:45 PM 49.8°F9.9°C 41.9°F5.5°C 74% Calm Calm 1.6 mph2.6 kmh 30.83 in1044.0 mb 0.00 in0.0 mm 0.00 in0.0 mm 0.01 in0.3 mm
10:00 PM 49.1°F9.5°C 41.5°F5.3°C 75% Calm Calm 0.7 mph1.1 kmh 30.83 in1044.0 mb 0.00 in0.0 mm 0.00 in0.0 mm 0.01 in0.3 mm
10:10 PM 49.1°F9.5°C 41.5°F5.3°C 75% Calm Calm -- 30.39 in1029.1 mb 0.00 in0.0 mm 0.00 in0.0 mm 0.01 in0.3 mm
10:15 PM 48.6°F9.2°C 41.3°F5.2°C 76% 0.7 mph SW1.1 kmh SW 2.2 mph3.5 kmh 30.83 in1044.0 mb 0.00 in0.0 mm 0.00 in0.0 mm 0.01 in0.3 mm
10:30 PM 48.2°F9.0°C 41.7°F5.4°C 78% Calm Calm 0.7 mph1.1 kmh 30.82 in1043.7 mb 0.00 in0.0 mm 0.00 in0.0 mm 0.01 in0.3 mm
10:40 PM 48.2°F9.0°C 41.7°F5.4°C 78% Calm Calm -- 30.39 in1029.1 mb 0.00 in0.0 mm 0.00 in0.0 mm 0.01 in0.3 mm
10:45 PM 47.7°F8.7°C 41.1°F5.1°C 78% Calm Calm 0.7 mph1.1 kmh 30.82 in1043.7 mb 0.00 in0.0 mm 0.00 in0.0 mm 0.01 in0.3 mm
11:00 PM 47.3°F8.5°C 41.1°F5.1°C 79% Calm Calm 2.2 mph3.5 kmh 30.82 in1043.7 mb 0.00 in0.0 mm 0.00 in0.0 mm 0.01 in0.3 mm
11:10 PM 47.3°F8.5°C 41.4°F5.2°C 80% Calm Calm 0.7 mph1.1 kmh 30.38 in1028.8 mb 0.00 in0.0 mm 0.00 in0.0 mm 0.01 in0.3 mm
11:15 PM 46.8°F8.2°C 40.9°F4.9°C 80% Calm Calm -- 30.82 in1043.7 mb 0.00 in0.0 mm 0.00 in0.0 mm 0.01 in0.3 mm
11:30 PM 46.6°F8.1°C 41.1°F5.1°C 81% Calm Calm 2.2 mph3.5 kmh 30.81 in1043.3 mb 0.00 in0.0 mm 0.00 in0.0 mm 0.01 in0.3 mm
11:40 PM 46.6°F8.1°C 41.1°F5.1°C 81% Calm Calm 0.7 mph1.1 kmh 30.38 in1028.8 mb 0.00 in0.0 mm 0.00 in0.0 mm 0.01 in0.3 mm
11:45 PM 46.4°F8.0°C 40.9°F4.9°C 81% 0.7 mph SW1.1 kmh SW 1.6 mph2.6 kmh 30.81 in1043.3 mb 0.00 in0.0 mm 0.00 in0.0 mm 0.01 in0.3 mm